N351CP LGSA-EHAM
Flight info
| Callsign | N351CP |
|---|---|
| Flight time | N/A |
| Altitude | 36000 |
| Route | SOKRI UB1 DDM DCT DIMIS DCT PETAK DCT KLAGY/N0472F380 DCT SIMBA DCT EXITI DCT GASKA DCT MAPOX DCT NORKU |
| Aircraft | CL60/M-SADE3FGHIJ3J4J7P2RWXY/HB1D1 |
Departure
| Time | 2026-05-08 17:46 |
|---|---|
| Airport | Chania International Airport (LGSA) |
Arrival
| Time | N/A |
|---|---|
| Airport | Amsterdam Airport Schiphol (EHAM) |
| Time | Latitude | Longitude | Altitude | Speed | Heading |
|---|---|---|---|---|---|
| 2026-05-08 16:55 | 35.53670 | 24.14483 | 428 ft | 0 kts | 111° |
| 2026-05-08 17:40 | 35.53669 | 24.14485 | 428 ft | 1 kts | 111° |
| 2026-05-08 17:40 | 35.53662 | 24.14494 | 428 ft | 2 kts | 171° |
| 2026-05-08 17:40 | 35.53653 | 24.14461 | 428 ft | 10 kts | 276° |
| 2026-05-08 17:40 | 35.53692 | 24.14337 | 427 ft | 19 kts | 291° |
| 2026-05-08 17:41 | 35.53737 | 24.14194 | 425 ft | 12 kts | 290° |
| 2026-05-08 17:41 | 35.53772 | 24.14080 | 424 ft | 16 kts | 290° |
| 2026-05-08 17:41 | 35.53819 | 24.13927 | 422 ft | 20 kts | 294° |
| 2026-05-08 17:41 | 35.53817 | 24.13823 | 422 ft | 12 kts | 205° |
| 2026-05-08 17:42 | 35.53751 | 24.13772 | 426 ft | 11 kts | 263° |
| 2026-05-08 17:42 | 35.53787 | 24.13658 | 424 ft | 17 kts | 292° |
| 2026-05-08 17:42 | 35.53824 | 24.13521 | 422 ft | 12 kts | 262° |
| 2026-05-08 17:42 | 35.53780 | 24.13487 | 425 ft | 1 kts | 200° |
| 2026-05-08 17:43 | 35.53766 | 24.13480 | 425 ft | 3 kts | 200° |
| 2026-05-08 17:43 | 35.53748 | 24.13471 | 427 ft | 2 kts | 201° |
| 2026-05-08 17:43 | 35.53733 | 24.13464 | 428 ft | 4 kts | 201° |
| 2026-05-08 17:43 | 35.53700 | 24.13449 | 430 ft | 4 kts | 201° |
| 2026-05-08 17:44 | 35.53672 | 24.13444 | 432 ft | 4 kts | 141° |
| 2026-05-08 17:44 | 35.53665 | 24.13467 | 432 ft | 0 kts | 108° |
| 2026-05-08 17:44 | 35.53665 | 24.13468 | 432 ft | 0 kts | 108° |
| 2026-05-08 17:45 | 35.53659 | 24.13489 | 432 ft | 4 kts | 108° |
| 2026-05-08 17:45 | 35.53512 | 24.13936 | 440 ft | 97 kts | 112° |
| 2026-05-08 17:45 | 35.53265 | 24.14682 | 453 ft | 109 kts | 112° |
| 2026-05-08 17:45 | 35.52875 | 24.15937 | 666 ft | 187 kts | 111° |
| 2026-05-08 17:46 | 35.52394 | 24.17573 | 1402 ft | 209 kts | 110° |
| 2026-05-08 17:46 | 35.51902 | 24.19186 | 2359 ft | 199 kts | 113° |
| 2026-05-08 17:46 | 35.51416 | 24.20701 | 3434 ft | 182 kts | 114° |
| 2026-05-08 17:46 | 35.50970 | 24.22098 | 4420 ft | 184 kts | 115° |
| 2026-05-08 17:47 | 35.50448 | 24.23662 | 5180 ft | 206 kts | 115° |
| 2026-05-08 17:47 | 35.49915 | 24.25268 | 6078 ft | 206 kts | 115° |
| 2026-05-08 17:47 | 35.49638 | 24.27005 | 7021 ft | 219 kts | 82° |
| 2026-05-08 17:47 | 35.50329 | 24.28705 | 8006 ft | 230 kts | 44° |
| 2026-05-08 17:48 | 35.51629 | 24.29816 | 9005 ft | 232 kts | 16° |
| 2026-05-08 17:48 | 35.53196 | 24.30089 | 9995 ft | 227 kts | 346° |
| 2026-05-08 17:48 | 35.54611 | 24.29443 | 10990 ft | 214 kts | 317° |
| 2026-05-08 17:48 | 35.55694 | 24.28274 | 11989 ft | 208 kts | 310° |
| 2026-05-08 17:49 | 35.56726 | 24.27086 | 12952 ft | 204 kts | 310° |
| 2026-05-08 17:49 | 35.57753 | 24.25908 | 13919 ft | 202 kts | 310° |
| 2026-05-08 17:49 | 35.58771 | 24.24740 | 14864 ft | 205 kts | 310° |
| 2026-05-08 17:49 | 35.59817 | 24.23536 | 15817 ft | 209 kts | 311° |
| 2026-05-08 17:50 | 35.60883 | 24.22311 | 16777 ft | 213 kts | 311° |
| 2026-05-08 17:50 | 35.61968 | 24.21065 | 17741 ft | 216 kts | 312° |
| 2026-05-08 17:50 | 35.63052 | 24.19822 | 18691 ft | 217 kts | 312° |
| 2026-05-08 17:50 | 35.64150 | 24.18563 | 19628 ft | 217 kts | 312° |
| 2026-05-08 17:51 | 35.65249 | 24.17302 | 20533 ft | 217 kts | 312° |
| 2026-05-08 17:51 | 35.66362 | 24.16024 | 21258 ft | 224 kts | 313° |
| 2026-05-08 17:51 | 35.67586 | 24.14606 | 21313 ft | 259 kts | 313° |
| 2026-05-08 17:51 | 35.68969 | 24.13011 | 21606 ft | 282 kts | 314° |
| 2026-05-08 17:52 | 35.70437 | 24.11325 | 22234 ft | 293 kts | 314° |
| 2026-05-08 17:52 | 35.71948 | 24.09590 | 22976 ft | 300 kts | 314° |
| 2026-05-08 17:52 | 35.75053 | 24.06025 | 24460 ft | 309 kts | 314° |
| 2026-05-08 17:53 | 35.76638 | 24.04204 | 25192 ft | 312 kts | 314° |
| 2026-05-08 17:53 | 35.78256 | 24.02340 | 25549 ft | 328 kts | 313° |
| 2026-05-08 17:53 | 35.79988 | 24.00339 | 25563 ft | 352 kts | 314° |
| 2026-05-08 17:53 | 35.81852 | 23.98188 | 25663 ft | 373 kts | 314° |
| 2026-05-08 17:54 | 35.83791 | 23.95952 | 26001 ft | 385 kts | 314° |
| 2026-05-08 17:54 | 35.85762 | 23.93680 | 26521 ft | 389 kts | 314° |
| 2026-05-08 17:54 | 35.87734 | 23.91406 | 27050 ft | 392 kts | 313° |
| 2026-05-08 17:54 | 35.89757 | 23.89071 | 27546 ft | 394 kts | 313° |
| 2026-05-08 17:55 | 35.91764 | 23.86751 | 27990 ft | 397 kts | 313° |
| 2026-05-08 17:55 | 35.93789 | 23.84409 | 28414 ft | 400 kts | 313° |
| 2026-05-08 17:55 | 35.95820 | 23.82058 | 28828 ft | 402 kts | 312° |
| 2026-05-08 17:55 | 35.97866 | 23.79689 | 29230 ft | 404 kts | 312° |
| 2026-05-08 17:56 | 35.99947 | 23.77276 | 29626 ft | 407 kts | 312° |
| 2026-05-08 17:56 | 36.02004 | 23.74889 | 30006 ft | 409 kts | 312° |
| 2026-05-08 17:56 | 36.04083 | 23.72474 | 30382 ft | 410 kts | 311° |
| 2026-05-08 17:56 | 36.06178 | 23.70040 | 30793 ft | 411 kts | 311° |
| 2026-05-08 17:57 | 36.08261 | 23.67618 | 31160 ft | 412 kts | 311° |
| 2026-05-08 17:57 | 36.10359 | 23.65175 | 31508 ft | 413 kts | 311° |
| 2026-05-08 17:57 | 36.12386 | 23.62814 | 31829 ft | 414 kts | 311° |
| 2026-05-08 17:57 | 36.14516 | 23.60330 | 32148 ft | 415 kts | 311° |
| 2026-05-08 17:58 | 36.16420 | 23.58109 | 32423 ft | 416 kts | 310° |
| 2026-05-08 17:58 | 36.18425 | 23.55767 | 32702 ft | 416 kts | 310° |
| 2026-05-08 17:58 | 36.20757 | 23.53069 | 33007 ft | 419 kts | 312° |
| 2026-05-08 17:58 | 36.23074 | 23.50787 | 33271 ft | 426 kts | 318° |
| 2026-05-08 17:59 | 36.25647 | 23.48818 | 33500 ft | 434 kts | 324° |
| 2026-05-08 17:59 | 36.28429 | 23.47238 | 33734 ft | 443 kts | 331° |
| 2026-05-08 17:59 | 36.31444 | 23.46089 | 34004 ft | 452 kts | 339° |
| 2026-05-08 17:59 | 36.34540 | 23.45377 | 34295 ft | 456 kts | 342° |
| 2026-05-08 18:00 | 36.37735 | 23.44724 | 34595 ft | 455 kts | 342° |
| 2026-05-08 18:00 | 36.43988 | 23.43436 | 35220 ft | 454 kts | 342° |
| 2026-05-08 18:00 | 36.47061 | 23.42801 | 35563 ft | 453 kts | 342° |
| 2026-05-08 18:01 | 36.50189 | 23.42156 | 35910 ft | 452 kts | 342° |
| 2026-05-08 18:01 | 36.53314 | 23.41507 | 36040 ft | 456 kts | 342° |
| 2026-05-08 18:01 | 36.59618 | 23.40195 | 36072 ft | 465 kts | 342° |
| 2026-05-08 18:02 | 36.66061 | 23.38859 | 36087 ft | 465 kts | 342° |
| 2026-05-08 18:02 | 36.72461 | 23.37531 | 36084 ft | 464 kts | 342° |
| 2026-05-08 18:03 | 36.78794 | 23.36213 | 36084 ft | 463 kts | 342° |
| 2026-05-08 18:03 | 36.85177 | 23.34883 | 36084 ft | 463 kts | 342° |
| 2026-05-08 18:04 | 36.91564 | 23.33549 | 36083 ft | 462 kts | 342° |
| 2026-05-08 18:04 | 36.97868 | 23.32231 | 36083 ft | 462 kts | 342° |
| 2026-05-08 18:05 | 37.04047 | 23.30936 | 36083 ft | 462 kts | 342° |
| 2026-05-08 18:05 | 37.10212 | 23.29642 | 36083 ft | 462 kts | 342° |
| 2026-05-08 18:06 | 37.16725 | 23.28282 | 36077 ft | 462 kts | 342° |
| 2026-05-08 18:06 | 37.23048 | 23.26948 | 36069 ft | 462 kts | 342° |
| 2026-05-08 18:07 | 37.29387 | 23.25609 | 36061 ft | 462 kts | 342° |
| 2026-05-08 18:07 | 37.35690 | 23.24275 | 36062 ft | 462 kts | 342° |
| 2026-05-08 18:08 | 37.41963 | 23.22934 | 36061 ft | 461 kts | 341° |
| 2026-05-08 18:08 | 37.47958 | 23.20547 | 36062 ft | 445 kts | 327° |
| 2026-05-08 18:09 | 37.53072 | 23.16606 | 36060 ft | 433 kts | 316° |
| 2026-05-08 18:09 | 37.57803 | 23.12024 | 36061 ft | 433 kts | 315° |
| 2026-05-08 18:10 | 37.62534 | 23.07440 | 36081 ft | 431 kts | 316° |
| 2026-05-08 18:10 | 37.67270 | 23.02846 | 36082 ft | 429 kts | 316° |
| 2026-05-08 18:11 | 37.71993 | 22.98257 | 36086 ft | 428 kts | 316° |
| 2026-05-08 18:11 | 37.76654 | 22.93720 | 36089 ft | 427 kts | 317° |
| 2026-05-08 18:12 | 37.81243 | 22.89247 | 36083 ft | 426 kts | 316° |
| 2026-05-08 18:12 | 37.85903 | 22.84696 | 36074 ft | 426 kts | 317° |
| 2026-05-08 18:13 | 37.90441 | 22.80259 | 36064 ft | 425 kts | 317° |
| 2026-05-08 18:13 | 37.95195 | 22.75602 | 36059 ft | 425 kts | 317° |
| 2026-05-08 18:14 | 37.99895 | 22.70990 | 36059 ft | 425 kts | 317° |
| 2026-05-08 18:14 | 38.04554 | 22.66411 | 36060 ft | 425 kts | 317° |
| 2026-05-08 18:15 | 38.09239 | 22.61800 | 36059 ft | 425 kts | 317° |
| 2026-05-08 18:15 | 38.13821 | 22.57282 | 36059 ft | 425 kts | 317° |
| 2026-05-08 18:16 | 38.17987 | 22.53168 | 36059 ft | 424 kts | 317° |